Time;durP1;ratioP1;P1;durP2;ratioP2;P2;SDS_P1;SDS_P2;PMS_P1;PMS_P2;Temp;Humidity;BMP_temperature;BMP_pressure;BME280_temperature;BME280_humidity;BME280_pressure;Samples;Min_cycle;Max_cycle;Signal;HPM_P1;HPM_P2
2021/05/26 00:02:03;;;;;;;3.10;2.90;;;;;;;13.44;95.40;93179.98;1747401;80;21053;-78
2021/05/26 00:04:31;;;;;;;7.92;3.25;;;;;;;13.45;93.61;93184.23;1747076;80;21633;-81
2021/05/26 00:06:58;;;;;;;3.27;2.98;;;;;;;13.44;93.81;93199.09;1747515;82;21125;-77
2021/05/26 00:09:24;;;;;;;6.72;3.83;;;;;;;13.43;92.71;93196.80;1747207;82;21580;-81
2021/05/26 00:11:50;;;;;;;4.28;3.30;;;;;;;13.42;93.13;93203.42;1747015;81;21116;-80
2021/05/26 00:14:17;;;;;;;2.80;2.60;;;;;;;13.40;92.17;93207.95;1747350;82;21028;-78
2021/05/26 00:16:45;;;;;;;3.17;2.87;;;;;;;13.42;92.36;93212.98;1747334;80;21737;-80
2021/05/26 00:19:13;;;;;;;6.12;3.08;;;;;;;13.45;91.53;93212.15;1747515;82;21095;-79
2021/05/26 00:21:41;;;;;;;3.17;2.70;;;;;;;13.47;91.26;93217.98;1748088;82;21609;-80
2021/05/26 00:24:09;;;;;;;3.42;3.12;;;;;;;13.48;91.15;93219.52;1747800;81;20977;-80
2021/05/26 00:26:36;;;;;;;4.83;3.55;;;;;;;13.51;91.01;93220.05;1747112;81;21558;-79
2021/05/26 00:29:04;;;;;;;3.67;3.22;;;;;;;13.50;91.35;93226.68;1747047;81;20996;-80
2021/05/26 00:31:32;;;;;;;3.67;3.15;;;;;;;13.47;91.29;93224.20;1747567;82;21103;-79
2021/05/26 00:33:59;;;;;;;3.83;2.92;;;;;;;13.47;91.43;93226.17;1751183;82;21756;-78
2021/05/26 00:36:25;;;;;;;4.00;2.87;;;;;;;13.42;90.48;93212.98;1775409;80;21002;-79
2021/05/26 00:38:52;;;;;;;3.60;2.80;;;;;;;13.41;89.49;93193.70;1762678;80;21095;-80
2021/05/26 00:41:18;;;;;;;3.30;2.90;;;;;;;13.36;89.90;93191.62;1760871;79;21196;-80
2021/05/26 00:43:45;;;;;;;3.20;2.90;;;;;;;13.33;88.19;93199.28;1837903;77;21626;-79
2021/05/26 00:46:12;;;;;;;5.33;3.35;;;;;;;13.33;88.85;93214.30;1763643;80;21582;-80
2021/05/26 00:48:40;;;;;;;3.77;3.17;;;;;;;13.31;89.44;93219.42;1763887;80;21045;-79
2021/05/26 00:51:07;;;;;;;4.55;2.92;;;;;;;13.30;90.27;93214.36;1763746;81;21041;-79
2021/05/26 00:53:35;;;;;;;3.95;2.85;;;;;;;13.27;91.06;93213.23;1763715;81;21009;-80
2021/05/26 00:56:01;;;;;;;3.98;2.70;;;;;;;13.25;90.80;93214.85;1763559;80;21764;-78
2021/05/26 00:58:29;;;;;;;3.12;2.83;;;;;;;13.21;89.94;93214.11;1763611;80;21132;-79
2021/05/26 01:00:57;;;;;;;3.60;3.30;;;;;;;13.19;90.23;93209.05;1763731;81;20925;-78
2021/05/26 01:03:26;;;;;;;5.70;2.90;;;;;;;13.14;91.38;93201.35;1763935;80;21017;-80
2021/05/26 01:05:53;;;;;;;4.03;2.55;;;;;;;13.09;91.69;93195.78;1763648;81;21036;-81
2021/05/26 01:08:21;;;;;;;4.70;3.08;;;;;;;13.05;92.33;93179.27;1763586;81;21065;-80
2021/05/26 01:10:51;;;;;;;3.47;2.72;;;;;;;12.97;92.72;93176.48;1763739;80;20997;-80
2021/05/26 01:13:22;;;;;;;2.85;2.65;;;;;;;12.93;93.64;93166.98;1764538;81;21161;-79
2021/05/26 01:15:49;;;;;;;4.22;2.75;;;;;;;12.91;94.28;93151.64;1763510;80;21057;-80
2021/05/26 01:18:22;;;;;;;2.95;2.55;;;;;;;12.80;94.40;93151.81;1763806;81;21009;-81
2021/05/26 01:20:52;;;;;;;2.72;2.50;;;;;;;12.75;95.09;93162.42;1763589;81;21124;-80
2021/05/26 01:23:18;;;;;;;3.62;2.45;;;;;;;12.74;95.31;93171.80;1762787;81;21100;-80
2021/05/26 01:25:50;;;;;;;2.62;2.42;;;;;;;12.74;95.63;93184.07;1741227;81;21021;-80
2021/05/26 01:28:18;;;;;;;2.40;2.12;;;;;;;12.76;95.76;93184.44;1794417;80;21586;-80
2021/05/26 01:30:47;;;;;;;2.58;2.35;;;;;;;12.76;95.81;93183.84;1756012;79;21060;-81
2021/05/26 01:33:14;;;;;;;2.95;2.58;;;;;;;12.72;95.78;93179.64;1756410;80;21227;-81
2021/05/26 01:35:43;;;;;;;5.28;2.40;;;;;;;12.68;96.00;93185.75;1763631;81;21084;-80
2021/05/26 01:38:16;;;;;;;3.30;2.83;;;;;;;12.66;96.12;93195.69;1764365;80;21053;-79
2021/05/26 01:40:43;;;;;;;3.42;3.10;;;;;;;12.68;96.48;93196.66;1763889;81;21061;-79
2021/05/26 01:43:10;;;;;;;7.37;2.98;;;;;;;12.74;96.74;93207.27;1764024;81;21021;-79
2021/05/26 01:45:40;;;;;;;8.63;2.90;;;;;;;12.81;96.60;93224.29;1763955;81;21059;-79
2021/05/26 01:48:07;;;;;;;3.77;2.95;;;;;;;12.85;96.52;93241.97;1763919;81;21495;-80
2021/05/26 01:50:35;;;;;;;3.20;2.90;;;;;;;12.85;96.47;93238.65;1763843;80;20986;-79
2021/05/26 01:53:06;;;;;;;2.77;2.58;;;;;;;12.85;96.42;93256.98;1763725;80;21033;-80
2021/05/26 01:55:36;;;;;;;3.90;2.90;;;;;;;12.79;95.80;93250.47;1764111;80;21021;-80
2021/05/26 01:58:04;;;;;;;2.50;2.30;;;;;;;12.70;95.36;93263.23;1739925;81;21124;-79
2021/05/26 02:00:36;;;;;;;4.22;2.42;;;;;;;12.63;94.94;93261.38;1761548;80;21069;-80
2021/05/26 02:03:03;;;;;;;5.30;2.47;;;;;;;12.57;93.77;93255.45;1765903;80;20993;-80
2021/05/26 02:05:30;;;;;;;2.40;2.22;;;;;;;12.51;93.70;93253.77;1763875;81;21013;-79
2021/05/26 02:07:56;;;;;;;3.77;2.75;;;;;;;12.45;93.17;93261.45;1763962;81;20938;-79
2021/05/26 02:13:10;;;;;;;2.62;2.42;;;;;;;12.19;93.20;93264.34;1763131;81;21097;-82
2021/05/26 02:15:47;;;;;;;3.75;2.77;;;;;;;12.12;93.16;93282.91;1764630;80;21097;-78
2021/05/26 02:18:14;;;;;;;5.37;2.80;;;;;;;12.04;92.64;93297.21;1763187;81;21029;-81
2021/05/26 02:20:42;;;;;;;2.70;2.50;;;;;;;11.92;91.96;93301.80;1764484;80;21503;-83
2021/05/26 02:23:13;;;;;;;2.20;2.00;;;;;;;11.84;91.53;93297.61;1764473;81;21072;-81
2021/05/26 02:25:41;;;;;;;2.90;2.60;;;;;;;11.75;91.05;93308.97;1837487;77;21017;-82
2021/05/26 02:28:11;;;;;;;5.28;2.72;;;;;;;11.62;90.71;93303.84;1763904;78;21099;-82
2021/05/26 02:30:37;;;;;;;3.55;2.45;;;;;;;11.45;90.23;93301.48;1754851;79;21042;-78
2021/05/26 02:33:05;;;;;;;2.60;2.40;;;;;;;11.33;89.72;93319.09;1807792;79;20965;-82
2021/05/26 02:35:32;;;;;;;6.50;3.33;;;;;;;11.20;89.59;93323.45;1808037;78;21645;-83
2021/05/26 02:37:59;;;;;;;3.33;2.60;;;;;;;11.07;89.63;93340.86;1774831;79;21068;-80
2021/05/26 02:40:26;;;;;;;3.35;2.75;;;;;;;10.92;89.61;93333.97;1806761;77;21613;-80
2021/05/26 02:42:54;;;;;;;7.42;2.75;;;;;;;10.77;88.71;93333.29;1830710;77;21059;-83
2021/05/26 02:45:22;;;;;;;5.67;3.10;;;;;;;10.60;88.90;93342.31;1823523;78;21564;-81
2021/05/26 02:47:50;;;;;;;3.92;2.92;;;;;;;10.47;89.53;93350.16;1824083;77;21139;-82
2021/05/26 02:52:45;;;;;;;3.90;2.77;;;;;;;10.24;89.33;93356.05;1820512;78;21121;-82
2021/05/26 02:55:14;;;;;;;3.77;2.70;;;;;;;10.15;89.83;93345.58;1860135;76;20985;-81
2021/05/26 02:57:43;;;;;;;7.08;3.10;;;;;;;10.08;89.64;93345.63;1850548;76;21545;-79
2021/05/26 03:00:28;;;;;;;4.10;2.52;;;;;;;10.02;89.56;93334.97;1829589;77;21086;-79
2021/05/26 03:03:02;;;;;;;2.80;2.45;;;;;;;9.89;89.42;93346.84;1803047;78;21056;-81
2021/05/26 03:05:29;;;;;;;3.30;2.92;;;;;;;9.77;90.04;93356.74;1827938;77;21130;-79
2021/05/26 03:07:58;;;;;;;4.40;3.05;;;;;;;9.68;90.48;93353.67;1854350;77;21353;-77
2021/05/26 03:10:24;;;;;;;2.58;2.37;;;;;;;9.59;90.94;93360.87;1826465;77;21640;-79
2021/05/26 03:12:54;;;;;;;6.12;2.90;;;;;;;9.52;91.16;93365.53;1819196;78;21120;-81
2021/05/26 03:15:23;;;;;;;2.83;2.52;;;;;;;9.45;91.38;93369.02;1830145;77;21010;-78
2021/05/26 03:17:52;;;;;;;6.67;2.47;;;;;;;9.40;91.51;93387.03;1803691;79;21169;-81
2021/05/26 03:20:19;;;;;;;3.20;2.83;;;;;;;9.36;91.38;93388.38;1784705;80;21100;-79
2021/05/26 03:22:46;;;;;;;4.58;2.83;;;;;;;9.33;91.31;93388.41;1801005;79;21080;-78
2021/05/26 03:25:30;;;;;;;4.42;2.98;;;;;;;9.30;91.35;93390.53;1807436;79;27700;-77
2021/05/26 03:28:02;;;;;;;7.15;3.87;;;;;;;9.26;91.50;93397.90;1788246;78;21656;-81
2021/05/26 03:30:28;;;;;;;4.75;2.87;;;;;;;9.23;91.66;93402.92;1767618;80;20997;-79
2021/05/26 03:32:55;;;;;;;3.42;3.00;;;;;;;9.22;91.60;93403.33;1769925;79;21210;-80
2021/05/26 03:35:22;;;;;;;4.53;2.87;;;;;;;9.20;91.06;93409.70;1803952;79;21037;-77
2021/05/26 03:37:48;;;;;;;2.70;2.50;;;;;;;9.17;91.01;93416.67;1777680;79;21052;-82
2021/05/26 03:40:16;;;;;;;3.55;2.65;;;;;;;9.13;90.79;93424.61;1784774;78;21608;-82
2021/05/26 03:42:44;;;;;;;4.80;3.30;;;;;;;9.06;91.25;93425.95;1841947;77;21095;-82
2021/05/26 03:45:13;;;;;;;5.78;2.60;;;;;;;9.05;91.46;93430.61;1840296;77;21101;-82
2021/05/26 03:47:43;;;;;;;5.20;2.70;;;;;;;9.05;90.67;93430.61;1791201;79;21057;-80
2021/05/26 03:50:13;;;;;;;3.27;2.75;;;;;;;9.07;90.86;93435.66;1808220;79;21103;-78
2021/05/26 03:52:46;;;;;;;4.08;2.50;;;;;;;9.07;90.81;93432.95;1795086;78;21122;-82
2021/05/26 03:55:15;;;;;;;4.17;2.72;;;;;;;9.06;90.43;93435.45;1815293;77;21071;-80
2021/05/26 03:57:42;;;;;;;3.77;2.77;;;;;;;9.02;90.26;93432.73;1794865;79;21845;-80
2021/05/26 04:00:11;;;;;;;4.03;2.60;;;;;;;9.02;90.12;93431.37;1814596;78;21064;-82
2021/05/26 04:02:39;;;;;;;4.92;2.90;;;;;;;9.02;90.30;93441.45;1828998;77;21660;-81
2021/05/26 04:05:08;;;;;;;4.15;3.10;;;;;;;8.97;90.12;93439.30;1801323;77;21112;-82
2021/05/26 04:07:34;;;;;;;2.75;2.35;;;;;;;8.97;90.02;93438.53;1808840;78;21076;-79
2021/05/26 04:10:03;;;;;;;3.33;2.80;;;;;;;8.94;89.14;93442.78;1791788;78;21108;-82
2021/05/26 04:12:32;;;;;;;6.05;3.10;;;;;;;8.91;89.55;93447.64;1812312;77;21569;-80
2021/05/26 04:15:05;;;;;;;4.60;2.40;;;;;;;8.89;89.70;93450.53;1846196;77;21067;-79
2021/05/26 04:17:50;;;;;;;6.15;3.10;;;;;;;8.90;89.87;93450.13;1840746;77;21095;-80
2021/05/26 04:20:22;;;;;;;6.25;3.35;;;;;;;8.95;90.01;93455.20;1752930;81;21099;-81
2021/05/26 04:22:49;;;;;;;7.33;3.35;;;;;;;8.96;90.14;93449.20;1766934;81;21104;-82
2021/05/26 04:25:16;;;;;;;4.47;3.30;;;;;;;8.98;90.50;93458.48;1776606;80;21080;-80
2021/05/26 04:27:46;;;;;;;5.95;4.00;;;;;;;9.01;90.43;93458.30;1770073;80;21064;-82
2021/05/26 04:30:15;;;;;;;8.83;3.77;;;;;;;9.06;90.51;93461.22;1764190;80;21124;-79
2021/05/26 04:32:43;;;;;;;5.80;3.40;;;;;;;9.07;90.47;93471.70;1761516;81;21076;-80
2021/05/26 04:35:11;;;;;;;3.60;3.27;;;;;;;9.06;90.36;93463.34;1770290;80;21104;-78
2021/05/26 04:37:38;;;;;;;3.92;3.00;;;;;;;9.05;90.68;93463.73;1770086;80;20977;-81
2021/05/26 04:40:08;;;;;;;5.70;3.10;;;;;;;9.06;91.06;93462.57;1759595;81;21622;-81
2021/05/26 04:42:34;;;;;;;4.03;3.17;;;;;;;9.07;91.48;93458.72;1771890;79;21613;-80
2021/05/26 04:45:03;;;;;;;3.75;3.05;;;;;;;9.07;91.46;93468.98;1800052;79;21032;-80
2021/05/26 04:47:35;;;;;;;4.85;2.98;;;;;;;9.08;91.11;93473.24;1821740;78;20999;-79
2021/05/26 04:50:05;;;;;;;4.50;3.00;;;;;;;9.08;90.98;93473.83;1767597;78;21075;-81
2021/05/26 04:52:31;;;;;;;4.22;2.58;;;;;;;9.08;91.27;93477.31;1755930;81;21080;-79
2021/05/26 04:54:58;;;;;;;4.40;2.87;;;;;;;9.10;91.19;93476.91;1735331;79;21435;-79
2021/05/26 04:57:25;;;;;;;8.55;3.08;;;;;;;9.12;91.37;93474.02;1801896;79;21237;-81
2021/05/26 04:59:52;;;;;;;3.35;2.80;;;;;;;9.16;91.28;93475.39;1762350;81;21121;-80
2021/05/26 05:02:18;;;;;;;6.40;3.30;;;;;;;9.20;91.39;93478.89;1775939;79;20989;-79
2021/05/26 05:04:45;;;;;;;3.40;2.87;;;;;;;9.23;90.57;93479.48;1818132;78;21107;-82
2021/05/26 05:07:12;;;;;;;5.22;2.80;;;;;;;9.27;90.91;93487.05;1790417;78;21123;-81
2021/05/26 05:09:39;;;;;;;4.08;2.72;;;;;;;9.30;90.47;93479.50;1747650;79;21097;-81
2021/05/26 05:12:09;;;;;;;3.90;2.67;;;;;;;9.34;90.68;93484.34;1796645;79;21060;-81
2021/05/26 05:14:37;;;;;;;3.72;2.92;;;;;;;9.39;90.19;93483.19;1791855;79;20981;-81
2021/05/26 05:17:03;;;;;;;3.60;2.90;;;;;;;9.43;89.86;93485.32;1754517;80;21135;-82
2021/05/26 05:19:30;;;;;;;3.62;2.72;;;;;;;9.47;89.40;93476.59;1753585;81;21161;-80
2021/05/26 05:21:57;;;;;;;4.65;2.60;;;;;;;9.52;89.51;93483.61;1760919;81;20990;-81
2021/05/26 05:24:25;;;;;;;3.92;2.65;;;;;;;9.55;89.83;93487.66;1773907;79;21028;-82
2021/05/26 05:26:51;;;;;;;4.58;3.05;;;;;;;9.61;89.13;93483.98;1735520;82;21084;-81
2021/05/26 05:29:17;;;;;;;6.12;3.40;;;;;;;9.65;89.17;93481.46;1799581;76;21100;-82
2021/05/26 05:31:44;;;;;;;5.47;3.02;;;;;;;9.72;89.03;93480.70;1833271;76;21544;-80
2021/05/26 05:34:10;;;;;;;3.95;3.00;;;;;;;9.78;88.48;93482.43;1813720;78;21100;-81
2021/05/26 05:36:36;;;;;;;3.47;2.55;;;;;;;9.87;88.14;93486.32;1837249;77;21157;-79
2021/05/26 05:39:04;;;;;;;3.98;2.98;;;;;;;9.93;87.89;93482.65;1823067;77;21050;-81
2021/05/26 05:41:32;;;;;;;2.80;2.60;;;;;;;9.96;87.08;93483.20;1820453;77;21238;-80
2021/05/26 05:43:58;;;;;;;6.15;3.50;;;;;;;10.01;86.76;93487.49;1813857;77;21083;-82
2021/05/26 05:46:25;;;;;;;3.08;2.77;;;;;;;10.03;86.88;93488.64;1856353;76;21005;-80
2021/05/26 05:48:51;;;;;;;3.95;3.22;;;;;;;10.10;87.16;93485.14;1854327;77;21119;-80
2021/05/26 05:51:18;;;;;;;4.10;2.60;;;;;;;10.14;86.77;93484.55;1831409;78;21001;-81
2021/05/26 05:53:44;;;;;;;3.05;2.20;;;;;;;10.18;86.27;93486.09;1810391;78;21115;-80
2021/05/26 05:56:10;;;;;;;5.42;2.65;;;;;;;10.22;86.38;93486.86;1758486;79;21068;-79
2021/05/26 05:58:37;;;;;;;4.22;3.17;;;;;;;10.28;86.58;93486.52;1786494;78;21060;-80
2021/05/26 06:01:03;;;;;;;4.70;3.10;;;;;;;10.38;86.24;93494.66;1802944;78;21084;-79
2021/05/26 06:03:31;;;;;;;5.60;2.65;;;;;;;10.51;85.57;93494.23;1799240;79;21012;-81
2021/05/26 06:05:58;;;;;;;3.98;2.92;;;;;;;10.60;85.42;93486.42;1799090;79;21609;-80
2021/05/26 06:08:24;;;;;;;3.85;3.08;;;;;;;10.67;85.73;93492.61;1807933;78;20982;-80
2021/05/26 06:10:51;;;;;;;4.78;2.90;;;;;;;10.73;85.58;93493.00;1829053;77;21036;-80
2021/05/26 06:13:17;;;;;;;5.72;4.12;;;;;;;10.80;85.69;93488.89;1843804;77;21080;-80
2021/05/26 06:15:44;;;;;;;5.78;3.12;;;;;;;10.88;84.88;93493.72;1830175;78;21016;-79
2021/05/26 06:18:11;;;;;;;4.62;2.62;;;;;;;10.91;84.93;93495.66;1807475;79;21077;-80
2021/05/26 06:20:38;;;;;;;4.17;2.70;;;;;;;10.96;84.46;93488.44;1819145;78;21079;-79
2021/05/26 06:23:06;;;;;;;3.17;2.87;;;;;;;10.96;84.14;93495.83;1813580;78;21106;-80
2021/05/26 06:25:33;;;;;;;6.45;3.30;;;;;;;10.94;84.12;93497.00;1818103;78;21053;-79
2021/05/26 06:28:00;;;;;;;8.33;3.05;;;;;;;10.94;83.97;93492.92;1816280;78;21155;-79
2021/05/26 06:30:26;;;;;;;3.85;2.95;;;;;;;10.96;83.69;93491.16;1810599;78;21089;-79
2021/05/26 06:32:53;;;;;;;4.55;3.00;;;;;;;10.99;83.74;93490.96;1831553;78;21071;-79
2021/05/26 06:35:19;;;;;;;3.52;2.92;;;;;;;11.01;83.44;93487.25;1785144;78;21055;-79
2021/05/26 06:37:47;;;;;;;6.35;4.15;;;;;;;11.03;83.93;93488.41;1807764;78;21086;-79
2021/05/26 06:40:14;;;;;;;9.30;5.30;;;;;;;11.08;84.14;93487.98;1823688;78;21055;-79
2021/05/26 06:42:41;;;;;;;5.08;3.40;;;;;;;11.21;84.42;93487.53;1804840;79;21605;-79
2021/05/26 06:45:08;;;;;;;4.80;2.90;;;;;;;11.38;84.54;93485.30;1839323;77;21080;-79
2021/05/26 06:47:35;;;;;;;4.42;2.92;;;;;;;11.55;84.03;93478.21;1836161;77;21104;-80
2021/05/26 06:50:01;;;;;;;3.47;2.65;;;;;;;11.73;83.50;93478.83;1821396;78;21592;-78
2021/05/26 06:52:30;;;;;;;3.33;2.95;;;;;;;11.99;83.40;93481.58;1795515;79;21108;-79
2021/05/26 06:54:57;;;;;;;3.77;2.77;;;;;;;12.19;81.45;93485.14;1808664;79;21257;-78
2021/05/26 06:57:23;;;;;;;3.22;2.62;;;;;;;12.29;80.79;93482.88;1812592;79;21350;-79
2021/05/26 06:59:50;;;;;;;17.50;3.72;;;;;;;12.38;80.16;93477.16;1811771;79;21063;-80
2021/05/26 07:02:16;;;;;;;5.12;3.35;;;;;;;12.58;79.37;93477.33;1811640;79;21095;-78
2021/05/26 07:04:43;;;;;;;4.35;2.80;;;;;;;12.72;78.59;93485.19;1812539;79;21060;-78
2021/05/26 07:07:09;;;;;;;3.45;2.87;;;;;;;12.77;78.52;93483.38;1813996;78;21079;-79
2021/05/26 07:09:36;;;;;;;5.05;3.02;;;;;;;12.82;78.22;93483.68;1828322;78;21112;-79
2021/05/26 07:12:03;;;;;;;4.75;2.98;;;;;;;12.84;77.01;93477.84;1815850;78;20999;-78
2021/05/26 07:14:30;;;;;;;5.65;3.17;;;;;;;12.89;76.32;93475.41;1817653;78;21065;-82
2021/05/26 07:16:57;;;;;;;3.65;3.27;;;;;;;12.95;76.62;93469.52;1818478;78;21079;-81
2021/05/26 07:19:24;;;;;;;4.53;3.00;;;;;;;13.05;76.12;93473.49;1798821;79;21075;-82
2021/05/26 07:21:51;;;;;;;3.22;2.67;;;;;;;13.18;76.36;93473.71;1791314;79;21116;-81
2021/05/26 07:24:17;;;;;;;2.87;2.65;;;;;;;13.43;77.38;93472.64;1838929;77;21000;-83
2021/05/26 07:26:44;;;;;;;2.67;2.47;;;;;;;13.73;75.94;93460.30;1847882;77;21678;-82
2021/05/26 07:29:12;;;;;;;3.45;2.60;;;;;;;14.14;76.64;93466.66;1825615;77;21080;-81
2021/05/26 07:31:41;;;;;;;2.47;2.25;;;;;;;14.55;74.79;93463.05;1803878;79;21103;-80
2021/05/26 07:34:08;;;;;;;2.85;2.60;;;;;;;14.85;72.06;93465.40;1813648;79;21048;-81
2021/05/26 07:36:36;;;;;;;5.15;4.55;;;;;;;15.17;70.80;93469.48;1813940;79;21009;-81
2021/05/26 07:39:04;;;;;;;6.10;3.17;;;;;;;15.45;68.85;93459.88;1813177;79;21061;-82
2021/05/26 07:41:31;;;;;;;7.45;4.10;;;;;;;15.64;68.16;93456.91;1813050;79;21074;-82
2021/05/26 07:43:57;;;;;;;3.30;2.72;;;;;;;15.76;68.22;93456.30;1818126;78;21127;-81
2021/05/26 07:46:24;;;;;;;4.75;2.92;;;;;;;15.83;66.34;93442.39;1829403;78;21056;-81
2021/05/26 07:48:52;;;;;;;3.52;2.62;;;;;;;15.89;66.82;93446.17;1828589;78;21060;-82
2021/05/26 07:51:27;;;;;;;4.35;2.55;;;;;;;15.95;66.74;93440.97;1814576;78;21039;-83
2021/05/26 07:53:49;;;;;;;2.37;2.17;;;;;;;15.99;66.89;93443.78;1838607;77;21106;-79
2021/05/26 07:56:16;;;;;;;5.28;2.55;;;;;;;15.99;66.81;93443.78;1830976;77;21067;-79
2021/05/26 07:58:43;;;;;;;3.50;2.87;;;;;;;15.97;66.54;93432.46;1799135;79;21120;-81
2021/05/26 08:01:10;;;;;;;4.40;2.77;;;;;;;15.96;66.98;93439.75;1804506;79;21052;-82
2021/05/26 08:03:36;;;;;;;5.95;4.92;;;;;;;15.96;66.94;93441.89;1813119;79;21130;-81
2021/05/26 08:06:04;;;;;;;3.33;2.92;;;;;;;15.97;67.33;93440.69;1818641;78;22199;-80
2021/05/26 08:08:30;;;;;;;2.95;2.65;;;;;;;16.00;66.82;93438.47;1775445;78;21098;-81
2021/05/26 08:10:58;;;;;;;3.22;2.70;;;;;;;15.96;66.61;93442.50;1746541;81;21113;-81
2021/05/26 08:13:24;;;;;;;4.62;2.72;;;;;;;15.90;66.13;93440.09;1802241;77;21072;-80
2021/05/26 08:15:50;;;;;;;2.70;2.50;;;;;;;15.88;66.08;93435.64;1834014;78;21084;-79
2021/05/26 08:18:20;;;;;;;2.60;2.40;;;;;;;15.94;66.96;93433.31;1768134;78;21095;-78
2021/05/26 08:20:48;;;;;;;6.17;2.47;;;;;;;16.07;65.91;93434.78;1813860;78;21988;-80
2021/05/26 08:23:15;;;;;;;3.20;2.40;;;;;;;16.20;64.64;93437.59;1825351;78;21068;-79
2021/05/26 08:25:41;;;;;;;3.30;3.00;;;;;;;16.30;65.26;93432.44;1827480;78;21293;-77
2021/05/26 08:28:07;;;;;;;3.10;2.62;;;;;;;16.40;66.00;93441.01;1827720;78;21108;-79
2021/05/26 08:30:36;;;;;;;5.33;2.67;;;;;;;16.49;65.87;93432.15;1827461;78;21051;-79
2021/05/26 08:33:02;;;;;;;3.22;2.92;;;;;;;16.54;64.86;93432.22;1829057;78;21121;-78
2021/05/26 08:35:29;;;;;;;2.80;2.60;;;;;;;16.54;65.38;93432.22;1829165;78;21130;-78
2021/05/26 08:37:55;;;;;;;4.62;2.52;;;;;;;16.54;65.79;93431.61;1828444;78;21107;-80
2021/05/26 08:40:22;;;;;;;3.30;2.33;;;;;;;16.57;65.41;93428.01;1828310;78;21057;-78
2021/05/26 08:42:48;;;;;;;3.33;2.55;;;;;;;16.58;64.39;93426.80;1830312;78;21142;-78
2021/05/26 08:45:16;;;;;;;2.37;2.17;;;;;;;16.56;63.75;93429.22;1828910;78;21129;-80
2021/05/26 08:47:43;;;;;;;3.52;2.50;;;;;;;16.50;65.04;93427.59;1827660;78;21630;-82
2021/05/26 08:50:10;;;;;;;3.45;3.15;;;;;;;16.47;64.91;93426.31;1828776;78;21060;-78
2021/05/26 08:52:36;;;;;;;3.10;2.58;;;;;;;16.45;64.35;93431.47;1799382;78;21060;-80
2021/05/26 08:55:03;;;;;;;2.92;2.60;;;;;;;16.42;64.43;93430.96;1827473;78;21056;-78
2021/05/26 08:57:30;;;;;;;2.65;2.47;;;;;;;16.33;63.57;93432.19;1827360;77;21103;-79
2021/05/26 08:59:56;;;;;;;3.75;2.62;;;;;;;16.24;63.25;93432.18;1827797;78;21024;-79
2021/05/26 09:02:23;;;;;;;3.25;2.90;;;;;;;16.19;63.76;93430.57;1827969;77;21057;-81
2021/05/26 09:04:50;;;;;;;3.37;1.92;;;;;;;16.14;64.36;93428.36;1833370;78;21099;-79
2021/05/26 09:07:19;;;;;;;2.70;2.47;;;;;;;16.15;65.80;93423.80;1830443;78;21020;-83
2021/05/26 09:09:55;;;;;;;2.58;2.15;;;;;;;16.26;66.70;93413.33;1829778;78;21071;-77
2021/05/26 09:12:42;;;;;;;4.50;2.30;;;;;;;16.41;65.12;93413.73;1828937;78;21067;-80
2021/05/26 09:15:18;;;;;;;2.52;2.33;;;;;;;16.49;62.73;93417.82;1828973;78;21060;-81
2021/05/26 09:17:48;;;;;;;3.52;2.45;;;;;;;16.52;66.08;93409.34;1827784;78;21135;-79
2021/05/26 09:20:30;;;;;;;3.60;2.65;;;;;;;16.59;66.22;93410.52;1829974;78;21029;-80
2021/05/26 09:23:14;;;;;;;2.12;2.00;;;;;;;16.61;65.15;93409.47;1829430;78;21357;-80
2021/05/26 09:28:24;;;;;;;2.62;2.42;;;;;;;16.65;63.69;93403.27;1828806;78;21048;-81
2021/05/26 09:31:10;;;;;;;4.95;2.00;;;;;;;16.70;64.38;93398.64;1808691;78;21130;-83
2021/05/26 09:33:44;;;;;;;2.33;1.98;;;;;;;16.77;65.42;93398.29;1824651;78;21057;-81
2021/05/26 09:36:23;;;;;;;4.53;2.47;;;;;;;16.80;63.38;93396.05;1798140;77;21639;-80
2021/05/26 09:38:58;;;;;;;2.02;1.90;;;;;;;16.84;63.44;93393.97;1792735;79;21645;-80
2021/05/26 09:41:36;;;;;;;2.47;1.85;;;;;;;16.88;61.92;93396.02;1799850;79;21689;-82
2021/05/26 09:44:10;;;;;;;2.22;2.02;;;;;;;16.89;62.38;93391.48;1776324;80;21060;-77
2021/05/26 09:46:39;;;;;;;2.37;2.17;;;;;;;16.91;61.43;93389.05;1823229;78;21661;-79
2021/05/26 09:49:09;;;;;;;6.80;2.40;;;;;;;16.96;60.93;93388.53;1797012;78;21055;-79
2021/05/26 09:51:44;;;;;;;2.35;1.87;;;;;;;17.02;60.86;93390.12;1821064;77;21147;-80
2021/05/26 09:54:30;;;;;;;2.65;2.00;;;;;;;17.08;60.39;93387.02;1829356;78;21077;-78
2021/05/26 09:57:07;;;;;;;3.52;1.90;;;;;;;17.10;59.62;93384.58;1799410;77;21123;-80
2021/05/26 09:59:35;;;;;;;2.33;1.77;;;;;;;17.11;59.07;93384.77;1806024;79;21113;-82
2021/05/26 10:02:06;;;;;;;2.17;1.67;;;;;;;17.12;58.66;93387.67;1825708;78;21065;-81
2021/05/26 10:04:30;;;;;;;2.95;2.12;;;;;;;17.15;58.61;93382.68;1829726;78;21088;-77
2021/05/26 10:07:15;;;;;;;5.53;1.77;;;;;;;17.21;58.58;93381.52;1809373;78;28212;-79
2021/05/26 10:09:45;;;;;;;1.90;1.80;;;;;;;17.23;58.09;93375.77;1787180;79;21154;-79
2021/05/26 10:12:13;;;;;;;4.03;2.37;;;;;;;17.29;59.18;93373.83;1819827;78;21036;-78
2021/05/26 10:14:42;;;;;;;2.72;1.80;;;;;;;17.35;58.44;93381.70;1829275;78;21091;-78
2021/05/26 10:17:17;;;;;;;2.27;1.98;;;;;;;17.40;60.04;93384.66;1830142;78;21069;-77
2021/05/26 10:19:38;;;;;;;3.83;2.37;;;;;;;17.48;59.92;93376.97;1828648;78;21060;-78
2021/05/26 10:22:05;;;;;;;2.85;1.90;;;;;;;17.57;59.33;93372.20;1831130;78;21037;-79
2021/05/26 10:24:31;;;;;;;1.92;1.72;;;;;;;17.59;57.63;93372.52;1822147;78;21059;-81
2021/05/26 10:27:00;;;;;;;3.77;1.75;;;;;;;17.66;58.79;93367.56;1815239;79;21070;-80
2021/05/26 10:29:38;;;;;;;2.10;1.95;;;;;;;17.78;57.91;93365.27;1813138;79;21084;-79
2021/05/26 10:34:51;;;;;;;3.35;2.15;;;;;;;17.82;58.13;93360.42;1776479;80;21233;-81
2021/05/26 10:37:34;;;;;;;4.80;1.80;;;;;;;17.72;58.13;93365.80;1755491;81;21657;-79
2021/05/26 10:40:02;;;;;;;3.00;1.87;;;;;;;17.61;57.52;93359.88;1814170;78;21071;-80
2021/05/26 10:42:33;;;;;;;4.10;2.40;;;;;;;17.57;57.20;93357.84;1787871;79;21210;-81
2021/05/26 10:45:09;;;;;;;5.60;2.30;;;;;;;17.57;58.20;93355.70;1795826;79;21032;-85
2021/05/26 10:47:43;;;;;;;3.62;2.10;;;;;;;17.62;58.49;93343.53;1803745;77;21222;-84
2021/05/26 10:50:19;;;;;;;1.90;1.80;;;;;;;17.70;59.91;93357.83;1841390;77;21071;-80
2021/05/26 10:52:58;;;;;;;;;;;;;;;17.72;58.18;93359.54;1831907;77;21359;-78
2021/05/26 10:55:37;;;;;;;1.95;1.85;;;;;;;17.64;56.78;93354.87;1825541;77;20226;-80
2021/05/26 10:58:31;;;;;;;2.90;2.30;;;;;;;17.57;56.55;93360.59;1787523;78;21365;-80
2021/05/26 11:01:03;;;;;;;2.90;1.72;;;;;;;17.48;57.16;93365.97;1816245;78;21095;-79
2021/05/26 11:03:35;;;;;;;4.65;2.02;;;;;;;17.36;57.14;93359.27;1779529;78;21128;-79
2021/05/26 11:06:19;;;;;;;2.00;1.87;;;;;;;17.26;58.17;93350.73;1743869;80;21087;-78
2021/05/26 11:08:53;;;;;;;2.42;2.22;;;;;;;17.19;57.09;93350.98;1791280;79;21792;-78
2021/05/26 11:14:09;;;;;;;3.80;1.72;;;;;;;16.89;57.34;93350.89;1777249;80;21138;-80
2021/05/26 11:16:50;;;;;;;3.20;2.52;;;;;;;16.86;58.34;93349.02;1787520;80;21096;-80
2021/05/26 11:19:21;;;;;;;5.65;2.10;;;;;;;16.90;59.45;93345.55;1829823;77;21084;-81
2021/05/26 11:22:06;;;;;;;2.50;2.22;;;;;;;17.01;59.85;93345.25;1810375;77;21012;-80
2021/05/26 11:24:35;;;;;;;4.62;1.75;;;;;;;17.13;59.97;93328.77;1762843;80;21623;-81
2021/05/26 11:27:14;;;;;;;2.12;1.85;;;;;;;17.29;59.06;93326.51;1761147;80;21698;-83
2021/05/26 11:29:41;;;;;;;2.90;2.70;;;;;;;17.37;59.46;93332.55;1774643;80;21624;-80
2021/05/26 11:32:09;;;;;;;2.35;2.15;;;;;;;17.47;58.42;93329.47;1762359;81;21572;-81
2021/05/26 11:34:40;;;;;;;2.77;2.33;;;;;;;17.59;57.36;93319.67;1790353;79;21991;-82
2021/05/26 11:37:07;;;;;;;5.00;2.25;;;;;;;17.77;59.26;93322.48;1799613;79;21025;-80
2021/05/26 11:39:34;;;;;;;2.98;1.80;;;;;;;17.91;58.91;93322.78;1798339;79;21068;-81
2021/05/26 11:42:15;;;;;;;2.08;1.87;;;;;;;18.01;57.88;93322.25;1801186;79;21167;-78
2021/05/26 11:45:07;;;;;;;2.10;2.00;;;;;;;18.09;58.64;93318.06;1802797;79;21071;-80
2021/05/26 11:50:20;;;;;;;1.62;1.52;;;;;;;18.26;57.63;93317.88;1800696;79;21618;-78
2021/05/26 11:52:53;;;;;;;3.25;1.80;;;;;;;18.28;54.88;93318.98;1759981;78;21208;-78
2021/05/26 11:55:23;;;;;;;4.50;2.08;;;;;;;18.16;55.54;93314.27;1768025;80;21052;-82
2021/05/26 11:57:51;;;;;;;4.42;2.08;;;;;;;18.05;54.65;93310.52;1817443;78;21799;-78
2021/05/26 12:00:25;;;;;;;2.20;1.50;;;;;;;18.03;56.13;93310.81;1807981;78;21085;-79
2021/05/26 12:03:05;;;;;;;2.80;1.70;;;;;;;18.10;55.49;93309.96;1827322;78;21040;-81